sensor_id;sensor_type;location;lat;lon;timestamp;pressure;altitude;pressure_sealevel;temperature;humidity
6530;BME280;3298;42.688;23.366;2022-08-19T00:00:21;60945.94;;;-145.06;74.08
6530;BME280;3298;42.688;23.366;2022-08-19T00:02:48;60045.09;;;-145.06;73.28
6530;BME280;3298;42.688;23.366;2022-08-19T00:05:15;60018.44;;;-145.06;72.95
6530;BME280;3298;42.688;23.366;2022-08-19T00:07:43;60016.38;;;-145.06;74.23
6530;BME280;3298;42.688;23.366;2022-08-19T00:10:13;60067.66;;;-145.06;73.40
6530;BME280;3298;42.688;23.366;2022-08-19T00:12:40;59991.75;;;-145.06;72.82
6530;BME280;3298;42.688;23.366;2022-08-19T00:15:09;60067.66;;;-145.06;72.60
6530;BME280;3298;42.688;23.366;2022-08-19T00:17:38;60049.19;;;-145.06;73.07
6530;BME280;3298;42.688;23.366;2022-08-19T00:20:06;59835.81;;;-145.06;73.70
6530;BME280;3298;42.688;23.366;2022-08-19T00:22:33;60041.00;;;-145.06;73.83
6530;BME280;3298;42.688;23.366;2022-08-19T00:25:00;60036.91;;;-145.06;73.45
6530;BME280;3298;42.688;23.366;2022-08-19T00:27:28;60051.25;;;-145.06;72.93
6530;BME280;3298;42.688;23.366;2022-08-19T00:29:55;59969.19;;;-145.06;73.24
6530;BME280;3298;42.688;23.366;2022-08-19T00:32:22;60036.91;;;-145.06;72.53
6530;BME280;3298;42.688;23.366;2022-08-19T00:34:48;60041.00;;;-145.06;72.47
6530;BME280;3298;42.688;23.366;2022-08-19T00:37:17;60036.91;;;-145.06;73.15
6530;BME280;3298;42.688;23.366;2022-08-19T00:39:43;60012.28;;;-145.06;72.80
6530;BME280;3298;42.688;23.366;2022-08-19T00:42:10;59999.97;;;-145.06;72.37
6530;BME280;3298;42.688;23.366;2022-08-19T00:44:42;60014.31;;;-145.06;73.53
6530;BME280;3298;42.688;23.366;2022-08-19T00:47:09;59948.66;;;-145.06;73.28
6530;BME280;3298;42.688;23.366;2022-08-19T00:49:40;59995.84;;;-145.06;73.19
6530;BME280;3298;42.688;23.366;2022-08-19T00:52:09;60006.13;;;-145.06;73.56
6530;BME280;3298;42.688;23.366;2022-08-19T00:54:39;60043.06;;;-145.06;72.99
6530;BME280;3298;42.688;23.366;2022-08-19T00:57:12;60004.06;;;-145.06;73.18
6530;BME280;3298;42.688;23.366;2022-08-19T00:59:44;59942.50;;;-145.06;75.60
6530;BME280;3298;42.688;23.366;2022-08-19T01:02:13;59897.38;;;-145.06;76.96
6530;BME280;3298;42.688;23.366;2022-08-19T01:04:40;59938.41;;;-145.06;76.83
6530;BME280;3298;42.688;23.366;2022-08-19T01:07:07;59934.31;;;-145.06;76.86
6530;BME280;3298;42.688;23.366;2022-08-19T01:09:34;59903.53;;;-145.06;77.73
6530;BME280;3298;42.688;23.366;2022-08-19T01:12:01;59885.06;;;-145.06;78.54
6530;BME280;3298;42.688;23.366;2022-08-19T01:14:29;59913.78;;;-145.06;78.68
6530;BME280;3298;42.688;23.366;2022-08-19T01:16:57;59907.63;;;-145.06;79.09
6530;BME280;3298;42.688;23.366;2022-08-19T01:19:36;59880.97;;;-145.06;78.76
6530;BME280;3298;42.688;23.366;2022-08-19T01:22:08;59856.34;;;-145.06;79.97
6530;BME280;3298;42.688;23.366;2022-08-19T01:24:38;59872.75;;;-145.06;79.03
6530;BME280;3298;42.688;23.366;2022-08-19T01:27:05;59860.44;;;-145.06;79.26
6530;BME280;3298;42.688;23.366;2022-08-19T01:29:34;59895.31;;;-145.06;79.82
6530;BME280;3298;42.688;23.366;2022-08-19T01:32:03;59909.69;;;-145.06;80.15
6530;BME280;3298;42.688;23.366;2022-08-19T01:34:31;59917.91;;;-145.06;79.25
6530;BME280;3298;42.688;23.366;2022-08-19T01:36:59;59901.47;;;-145.06;80.62
6530;BME280;3298;42.688;23.366;2022-08-19T01:39:28;59899.44;;;-145.06;80.53
6530;BME280;3298;42.688;23.366;2022-08-19T01:41:56;59597.84;;;-145.06;82.03
6530;BME280;3298;42.688;23.366;2022-08-19T01:44:23;59813.25;;;-145.06;83.41
6530;BME280;3298;42.688;23.366;2022-08-19T01:46:50;59780.44;;;-145.06;84.10
6530;BME280;3298;42.688;23.366;2022-08-19T01:49:20;59784.53;;;-145.06;82.92
6530;BME280;3298;42.688;23.366;2022-08-19T01:51:48;59809.16;;;-145.06;82.70
6530;BME280;3298;42.688;23.366;2022-08-19T01:54:18;59839.94;;;-145.06;83.08
6530;BME280;3298;42.688;23.366;2022-08-19T01:56:46;59880.97;;;-145.06;83.07
6530;BME280;3298;42.688;23.366;2022-08-19T01:59:16;59548.63;;;-145.06;82.69
6530;BME280;3298;42.688;23.366;2022-08-19T02:01:44;59901.47;;;-145.06;81.77
6530;BME280;3298;42.688;23.366;2022-08-19T02:04:11;59885.06;;;-145.06;81.35
6530;BME280;3298;42.688;23.366;2022-08-19T02:06:38;59880.97;;;-145.06;82.23
6530;BME280;3298;42.688;23.366;2022-08-19T02:09:05;59885.06;;;-145.06;82.50
6530;BME280;3298;42.688;23.366;2022-08-19T02:11:35;59821.47;;;-145.06;83.13
6530;BME280;3298;42.688;23.366;2022-08-19T02:14:04;59866.59;;;-145.06;83.82
6530;BME280;3298;42.688;23.366;2022-08-19T02:16:34;59862.50;;;-145.06;83.98
6530;BME280;3298;42.688;23.366;2022-08-19T02:19:01;59675.81;;;-145.06;84.99
6530;BME280;3298;42.688;23.366;2022-08-19T02:21:29;59848.13;;;-145.06;85.35
6530;BME280;3298;42.688;23.366;2022-08-19T02:23:57;59868.66;;;-145.06;85.56
6530;BME280;3298;42.688;23.366;2022-08-19T02:26:25;59870.72;;;-145.06;83.89
6530;BME280;3298;42.688;23.366;2022-08-19T02:28:53;59872.75;;;-145.06;82.18
6530;BME280;3298;42.688;23.366;2022-08-19T02:31:22;59868.66;;;-145.06;82.50
6530;BME280;3298;42.688;23.366;2022-08-19T02:33:51;59899.44;;;-145.06;82.03
6530;BME280;3298;42.688;23.366;2022-08-19T02:36:18;59876.88;;;-145.06;82.38
6530;BME280;3298;42.688;23.366;2022-08-19T02:38:45;59905.59;;;-145.06;82.61
6530;BME280;3298;42.688;23.366;2022-08-19T02:41:15;59895.31;;;-145.06;82.60
6530;BME280;3298;42.688;23.366;2022-08-19T02:43:42;59883.03;;;-145.06;82.21
6530;BME280;3298;42.688;23.366;2022-08-19T02:46:14;59860.44;;;-145.06;82.32
6530;BME280;3298;42.688;23.366;2022-08-19T02:48:41;59585.53;;;-145.06;83.30
6530;BME280;3298;42.688;23.366;2022-08-19T02:51:15;59811.22;;;-145.06;83.15
6530;BME280;3298;42.688;23.366;2022-08-19T02:53:42;59737.34;;;-145.06;83.68
6530;BME280;3298;42.688;23.366;2022-08-19T02:56:10;59805.06;;;-145.06;84.55
6530;BME280;3298;42.688;23.366;2022-08-19T02:58:36;59821.47;;;-145.06;84.14
6530;BME280;3298;42.688;23.366;2022-08-19T03:01:03;59708.63;;;-145.06;85.79
6530;BME280;3298;42.688;23.366;2022-08-19T03:03:31;59819.41;;;-145.06;85.92
6530;BME280;3298;42.688;23.366;2022-08-19T03:06:06;59764.03;;;-145.06;86.16
6530;BME280;3298;42.688;23.366;2022-08-19T03:08:35;59780.44;;;-145.06;87.18
6530;BME280;3298;42.688;23.366;2022-08-19T03:11:02;59770.19;;;-145.06;86.30
6530;BME280;3298;42.688;23.366;2022-08-19T03:13:29;59770.19;;;-145.06;88.18
6530;BME280;3298;42.688;23.366;2022-08-19T03:15:56;59778.38;;;-145.06;88.02
6530;BME280;3298;42.688;23.366;2022-08-19T03:18:22;59745.56;;;-145.06;87.81
6530;BME280;3298;42.688;23.366;2022-08-19T03:20:51;59753.75;;;-145.06;89.30
6530;BME280;3298;42.688;23.366;2022-08-19T03:23:19;59735.31;;;-145.06;88.83
6530;BME280;3298;42.688;23.366;2022-08-19T03:25:49;59698.38;;;-145.06;88.83
6530;BME280;3298;42.688;23.366;2022-08-19T03:28:17;59684.00;;;-145.06;88.64
6530;BME280;3298;42.688;23.366;2022-08-19T03:30:55;59638.88;;;-145.06;88.29
6530;BME280;3298;42.688;23.366;2022-08-19T03:33:23;59548.63;;;-145.06;88.30
6530;BME280;3298;42.688;23.366;2022-08-19T03:36:00;59355.78;;;-145.06;88.53
6530;BME280;3298;42.688;23.366;2022-08-19T03:38:27;59429.63;;;-145.06;88.83
6530;BME280;3298;42.688;23.366;2022-08-19T03:40:55;59357.84;;;-145.06;87.94
6530;BME280;3298;42.688;23.366;2022-08-19T03:43:22;59355.78;;;-145.06;87.63
6530;BME280;3298;42.688;23.366;2022-08-19T03:45:48;59306.56;;;-145.06;86.72
6530;BME280;3298;42.688;23.366;2022-08-19T03:48:16;59220.41;;;-145.06;86.22
6530;BME280;3298;42.688;23.366;2022-08-19T03:50:43;59214.25;;;-145.06;87.05
6530;BME280;3298;42.688;23.366;2022-08-19T03:53:10;59206.03;;;-145.06;87.04
6530;BME280;3298;42.688;23.366;2022-08-19T03:55:40;59183.47;;;-145.06;87.11
6530;BME280;3298;42.688;23.366;2022-08-19T03:58:08;59148.63;;;-145.06;87.10
6530;BME280;3298;42.688;23.366;2022-08-19T04:00:36;59175.28;;;-145.06;86.84
6530;BME280;3298;42.688;23.366;2022-08-19T04:03:03;59175.28;;;-145.06;85.95
6530;BME280;3298;42.688;23.366;2022-08-19T04:05:29;59162.97;;;-145.06;86.01
6530;BME280;3298;42.688;23.366;2022-08-19T04:07:56;59142.47;;;-145.06;86.02
6530;BME280;3298;42.688;23.366;2022-08-19T04:10:24;59099.38;;;-145.06;85.47
6530;BME280;3298;42.688;23.366;2022-08-19T04:12:51;59060.41;;;-145.06;85.41
6530;BME280;3298;42.688;23.366;2022-08-19T04:15:19;59097.34;;;-145.06;85.17
6530;BME280;3298;42.688;23.366;2022-08-19T04:17:46;59085.03;;;-145.06;85.92
6530;BME280;3298;42.688;23.366;2022-08-19T04:20:13;59072.72;;;-145.06;86.49
6530;BME280;3298;42.688;23.366;2022-08-19T04:22:39;59066.56;;;-145.06;87.14
6530;BME280;3298;42.688;23.366;2022-08-19T04:25:07;59080.91;;;-145.06;85.91
6530;BME280;3298;42.688;23.366;2022-08-19T04:27:33;59101.44;;;-145.06;85.32
6530;BME280;3298;42.688;23.366;2022-08-19T04:30:00;58996.81;;;-145.06;83.60
6530;BME280;3298;42.688;23.366;2022-08-19T04:32:28;59041.94;;;-145.06;83.08
6530;BME280;3298;42.688;23.366;2022-08-19T04:34:57;58933.25;;;-145.06;82.92
6530;BME280;3298;42.688;23.366;2022-08-19T04:37:25;59009.13;;;-145.06;82.56
6530;BME280;3298;42.688;23.366;2022-08-19T04:39:52;58980.41;;;-145.06;82.36
6530;BME280;3298;42.688;23.366;2022-08-19T04:42:36;58957.84;;;-145.06;81.72
6530;BME280;3298;42.688;23.366;2022-08-19T04:45:07;58927.09;;;-145.06;81.34
6530;BME280;3298;42.688;23.366;2022-08-19T04:47:37;58908.63;;;-145.06;82.10
6530;BME280;3298;42.688;23.366;2022-08-19T04:50:05;58799.94;;;-145.06;82.30
6530;BME280;3298;42.688;23.366;2022-08-19T04:52:33;58859.41;;;-145.06;82.48
6530;BME280;3298;42.688;23.366;2022-08-19T04:54:59;58793.78;;;-145.06;82.23
6530;BME280;3298;42.688;23.366;2022-08-19T04:57:26;58717.88;;;-145.06;80.13
6530;BME280;3298;42.688;23.366;2022-08-19T04:59:53;60344.66;;;-145.06;76.24
6530;BME280;3298;42.688;23.366;2022-08-19T05:02:21;58867.59;;;-145.06;72.23
6530;BME280;3298;42.688;23.366;2022-08-19T05:04:51;59993.81;;;-145.06;66.93
6530;BME280;3298;42.688;23.366;2022-08-19T05:07:22;59528.09;;;-145.06;64.25
6530;BME280;3298;42.688;23.366;2022-08-19T05:09:49;59474.75;;;-145.06;62.17
6530;BME280;3298;42.688;23.366;2022-08-19T05:12:16;59571.19;;;-145.06;60.52
6530;BME280;3298;42.688;23.366;2022-08-19T05:14:43;59396.81;;;-145.06;59.45
6530;BME280;3298;42.688;23.366;2022-08-19T05:17:10;59757.88;;;-145.06;58.87
6530;BME280;3298;42.688;23.366;2022-08-19T05:19:37;59854.28;;;-145.06;57.53
6530;BME280;3298;42.688;23.366;2022-08-19T05:22:22;60151.78;;;-145.06;54.35
6530;BME280;3298;42.688;23.366;2022-08-19T05:25:00;60352.88;;;-145.06;51.25
6530;BME280;3298;42.688;23.366;2022-08-19T05:27:27;60769.44;;;-145.06;49.56
6530;BME280;3298;42.688;23.366;2022-08-19T05:29:54;60453.41;;;-145.06;49.58
6530;BME280;3298;42.688;23.366;2022-08-19T05:32:21;60605.28;;;-145.06;49.09
6530;BME280;3298;42.688;23.366;2022-08-19T05:34:48;60968.50;;;-145.06;47.53
6530;BME280;3298;42.688;23.366;2022-08-19T05:37:15;61305.09;;;-145.06;45.84
6530;BME280;3298;42.688;23.366;2022-08-19T05:39:43;61428.25;;;-145.06;44.44
6530;BME280;3298;42.688;23.366;2022-08-19T05:42:12;61485.72;;;-145.06;43.59
6530;BME280;3298;42.688;23.366;2022-08-19T05:44:41;61678.66;;;-145.06;43.09
6530;BME280;3298;42.688;23.366;2022-08-19T05:47:11;61418.00;;;-145.06;42.11
6530;BME280;3298;42.688;23.366;2022-08-19T05:49:38;61245.56;;;-145.06;44.38
6530;BME280;3298;42.688;23.366;2022-08-19T05:52:07;60500.63;;;-145.06;48.95
6530;BME280;3298;42.688;23.366;2022-08-19T05:54:37;60032.78;;;-145.06;53.66
6530;BME280;3298;42.688;23.366;2022-08-19T05:57:07;59768.13;;;-145.06;57.37
6530;BME280;3298;42.688;23.366;2022-08-19T05:59:34;59583.50;;;-145.06;60.58
6530;BME280;3298;42.688;23.366;2022-08-19T06:02:01;59288.09;;;-145.06;61.34
6530;BME280;3298;42.688;23.366;2022-08-19T06:04:28;59493.22;;;-145.06;62.49
6530;BME280;3298;42.688;23.366;2022-08-19T06:06:55;59444.00;;;-145.06;63.46
6530;BME280;3298;42.688;23.366;2022-08-19T06:09:23;59427.59;;;-145.06;64.09
6530;BME280;3298;42.688;23.366;2022-08-19T06:11:51;59400.91;;;-145.06;63.92
6530;BME280;3298;42.688;23.366;2022-08-19T06:14:23;59374.25;;;-145.06;64.30
6530;BME280;3298;42.688;23.366;2022-08-19T06:16:50;59482.97;;;-145.06;63.68
6530;BME280;3298;42.688;23.366;2022-08-19T06:19:20;60964.41;;;-145.06;63.54
6530;BME280;3298;42.688;23.366;2022-08-19T06:21:49;59458.34;;;-145.06;63.77
6530;BME280;3298;42.688;23.366;2022-08-19T06:24:19;59460.41;;;-145.06;63.35
6530;BME280;3298;42.688;23.366;2022-08-19T06:26:49;59462.47;;;-145.06;62.62
6530;BME280;3298;42.688;23.366;2022-08-19T06:29:19;59450.16;;;-145.06;62.21
6530;BME280;3298;42.688;23.366;2022-08-19T06:31:50;59450.16;;;-145.06;61.47
6530;BME280;3298;42.688;23.366;2022-08-19T06:34:19;59454.25;;;-145.06;62.38
6530;BME280;3298;42.688;23.366;2022-08-19T06:36:47;59513.75;;;-145.06;62.51
6530;BME280;3298;42.688;23.366;2022-08-19T06:39:16;59517.84;;;-145.06;59.64
6530;BME280;3298;42.688;23.366;2022-08-19T06:41:48;59505.53;;;-145.06;60.49
6530;BME280;3298;42.688;23.366;2022-08-19T06:44:15;59433.75;;;-145.06;60.62
6530;BME280;3298;42.688;23.366;2022-08-19T06:46:42;59503.50;;;-145.06;61.19
6530;BME280;3298;42.688;23.366;2022-08-19T06:49:11;59503.50;;;-145.06;61.63
6530;BME280;3298;42.688;23.366;2022-08-19T06:51:40;59565.03;;;-145.06;61.39
6530;BME280;3298;42.688;23.366;2022-08-19T06:54:07;59601.97;;;-145.06;60.74
6530;BME280;3298;42.688;23.366;2022-08-19T06:56:34;59569.13;;;-145.06;59.69
6530;BME280;3298;42.688;23.366;2022-08-19T06:59:02;59716.84;;;-145.06;58.53
6530;BME280;3298;42.688;23.366;2022-08-19T07:01:29;59696.31;;;-145.06;57.75
6530;BME280;3298;42.688;23.366;2022-08-19T07:03:56;59679.91;;;-145.06;58.41
6530;BME280;3298;42.688;23.366;2022-08-19T07:06:24;59692.22;;;-145.06;59.18
6530;BME280;3298;42.688;23.366;2022-08-19T07:08:51;59688.13;;;-145.06;57.61
6530;BME280;3298;42.688;23.366;2022-08-19T07:11:18;59729.16;;;-145.06;58.11
6530;BME280;3298;42.688;23.366;2022-08-19T07:13:46;59761.97;;;-145.06;56.97
6530;BME280;3298;42.688;23.366;2022-08-19T07:16:15;59462.47;;;-145.06;57.47
6530;BME280;3298;42.688;23.366;2022-08-19T07:18:43;59540.41;;;-145.06;57.57
6530;BME280;3298;42.688;23.366;2022-08-19T07:21:12;59727.09;;;-145.06;57.26
6530;BME280;3298;42.688;23.366;2022-08-19T07:23:41;59720.94;;;-145.06;57.59
6530;BME280;3298;42.688;23.366;2022-08-19T07:26:10;59766.06;;;-145.06;56.90
6530;BME280;3298;42.688;23.366;2022-08-19T07:28:37;59774.28;;;-145.06;56.94
6530;BME280;3298;42.688;23.366;2022-08-19T07:31:05;59778.38;;;-145.06;56.48
6530;BME280;3298;42.688;23.366;2022-08-19T07:33:33;59841.97;;;-145.06;57.03
6530;BME280;3298;42.688;23.366;2022-08-19T07:36:03;59868.66;;;-145.06;56.19
6530;BME280;3298;42.688;23.366;2022-08-19T07:38:30;59909.69;;;-145.06;56.15
6530;BME280;3298;42.688;23.366;2022-08-19T07:40:58;59936.34;;;-145.06;55.55
6530;BME280;3298;42.688;23.366;2022-08-19T07:43:25;60004.06;;;-145.06;55.23
6530;BME280;3298;42.688;23.366;2022-08-19T07:45:53;60010.22;;;-145.06;54.49
6530;BME280;3298;42.688;23.366;2022-08-19T07:48:22;60036.91;;;-145.06;54.47
6530;BME280;3298;42.688;23.366;2022-08-19T07:50:51;59985.59;;;-145.06;53.83
6530;BME280;3298;42.688;23.366;2022-08-19T07:53:19;60090.25;;;-145.06;54.05
6530;BME280;3298;42.688;23.366;2022-08-19T07:55:46;60082.03;;;-145.06;53.76
6530;BME280;3298;42.688;23.366;2022-08-19T07:58:18;59999.97;;;-145.06;53.26
6530;BME280;3298;42.688;23.366;2022-08-19T08:00:47;60123.06;;;-145.06;52.74
6530;BME280;3298;42.688;23.366;2022-08-19T08:03:17;60118.97;;;-145.06;52.38
6530;BME280;3298;42.688;23.366;2022-08-19T08:05:44;60123.06;;;-145.06;52.42
6530;BME280;3298;42.688;23.366;2022-08-19T08:08:31;60149.75;;;-145.06;51.99
6530;BME280;3298;42.688;23.366;2022-08-19T08:11:16;60221.56;;;-145.06;51.30
6530;BME280;3298;42.688;23.366;2022-08-19T08:13:44;60250.28;;;-145.06;51.12
6530;BME280;3298;42.688;23.366;2022-08-19T08:16:11;60492.41;;;-145.06;50.64
6530;BME280;3298;42.688;23.366;2022-08-19T08:18:38;60320.03;;;-145.06;50.63
6530;BME280;3298;42.688;23.366;2022-08-19T08:21:07;60340.56;;;-145.06;49.79
6530;BME280;3298;42.688;23.366;2022-08-19T08:23:35;60828.94;;;-145.06;48.87
6530;BME280;3298;42.688;23.366;2022-08-19T08:26:02;60398.00;;;-145.06;47.60
6530;BME280;3298;42.688;23.366;2022-08-19T08:28:30;60469.84;;;-145.06;47.12
6530;BME280;3298;42.688;23.366;2022-08-19T08:30:58;60492.41;;;-145.06;47.18
6530;BME280;3298;42.688;23.366;2022-08-19T08:33:28;60545.75;;;-145.06;46.42
6530;BME280;3298;42.688;23.366;2022-08-19T08:35:55;60560.13;;;-145.06;45.99
6530;BME280;3298;42.688;23.366;2022-08-19T08:38:22;60631.94;;;-145.06;45.23
6530;BME280;3298;42.688;23.366;2022-08-19T08:40:52;60500.63;;;-145.06;44.48
6530;BME280;3298;42.688;23.366;2022-08-19T08:43:26;60615.53;;;-145.06;44.32
6530;BME280;3298;42.688;23.366;2022-08-19T08:45:59;60711.97;;;-145.06;44.19
6530;BME280;3298;42.688;23.366;2022-08-19T08:48:37;60763.28;;;-145.06;44.08
6530;BME280;3298;42.688;23.366;2022-08-19T08:51:10;60783.81;;;-145.06;44.09
6530;BME280;3298;42.688;23.366;2022-08-19T08:53:40;60845.38;;;-145.06;44.18
6530;BME280;3298;42.688;23.366;2022-08-19T08:56:10;60913.09;;;-145.06;43.78
6530;BME280;3298;42.688;23.366;2022-08-19T08:58:48;60966.44;;;-145.06;43.31
6530;BME280;3298;42.688;23.366;2022-08-19T09:01:18;60984.94;;;-145.06;43.21
6530;BME280;3298;42.688;23.366;2022-08-19T09:03:46;61085.50;;;-145.06;42.77
6530;BME280;3298;42.688;23.366;2022-08-19T09:06:18;61128.59;;;-145.06;41.48
6530;BME280;3298;42.688;23.366;2022-08-19T09:08:54;61179.91;;;-145.06;41.10
6530;BME280;3298;42.688;23.366;2022-08-19T09:11:35;61165.53;;;-145.06;40.79
6530;BME280;3298;42.688;23.366;2022-08-19T09:14:10;61153.22;;;-145.06;40.48
6530;BME280;3298;42.688;23.366;2022-08-19T09:16:42;61177.84;;;-145.06;39.74
6530;BME280;3298;42.688;23.366;2022-08-19T09:19:09;60870.00;;;-145.06;39.00
6530;BME280;3298;42.688;23.366;2022-08-19T09:21:36;61262.00;;;-145.06;38.89
6530;BME280;3298;42.688;23.366;2022-08-19T09:24:05;61259.94;;;-145.06;38.12
6530;BME280;3298;42.688;23.366;2022-08-19T09:26:32;61325.63;;;-145.06;37.62
6530;BME280;3298;42.688;23.366;2022-08-19T09:29:00;61348.19;;;-145.06;37.12
6530;BME280;3298;42.688;23.366;2022-08-19T09:31:28;61327.69;;;-145.06;35.38
6530;BME280;3298;42.688;23.366;2022-08-19T09:33:57;61420.03;;;-145.06;36.06
6530;BME280;3298;42.688;23.366;2022-08-19T09:36:26;61465.19;;;-145.06;36.85
6530;BME280;3298;42.688;23.366;2022-08-19T09:38:55;60993.13;;;-145.06;36.88
6530;BME280;3298;42.688;23.366;2022-08-19T09:41:24;61561.66;;;-145.06;35.35
6530;BME280;3298;42.688;23.366;2022-08-19T09:43:52;61645.81;;;-145.06;34.66
6530;BME280;3298;42.688;23.366;2022-08-19T09:46:21;61707.41;;;-145.06;34.58
6530;BME280;3298;42.688;23.366;2022-08-19T09:48:49;61678.66;;;-145.06;34.37
6530;BME280;3298;42.688;23.366;2022-08-19T09:51:20;61791.56;;;-145.06;33.80
6530;BME280;3298;42.688;23.366;2022-08-19T09:53:48;61892.16;;;-145.06;33.73
6530;BME280;3298;42.688;23.366;2022-08-19T09:56:17;61982.50;;;-145.06;33.63
6530;BME280;3298;42.688;23.366;2022-08-19T09:58:44;62037.91;;;-145.06;33.04
6530;BME280;3298;42.688;23.366;2022-08-19T10:01:17;62017.38;;;-145.06;32.39
6530;BME280;3298;42.688;23.366;2022-08-19T10:03:47;62196.00;;;-145.06;32.40
6530;BME280;3298;42.688;23.366;2022-08-19T10:06:15;62274.00;;;-145.06;31.92
6530;BME280;3298;42.688;23.366;2022-08-19T10:08:44;62298.66;;;-145.06;31.60
6530;BME280;3298;42.688;23.366;2022-08-19T10:11:12;62362.28;;;-145.06;31.77
6530;BME280;3298;42.688;23.366;2022-08-19T10:13:42;62567.63;;;-145.06;31.35
6530;BME280;3298;42.688;23.366;2022-08-19T10:16:11;62719.56;;;-145.06;31.40
6530;BME280;3298;42.688;23.366;2022-08-19T10:18:38;62877.66;;;-145.06;30.58
6530;BME280;3298;42.688;23.366;2022-08-19T10:21:11;62922.84;;;-145.06;30.70
6530;BME280;3298;42.688;23.366;2022-08-19T10:23:42;62840.72;;;-145.06;30.67
6530;BME280;3298;42.688;23.366;2022-08-19T10:26:14;62908.47;;;-145.06;30.56
6530;BME280;3298;42.688;23.366;2022-08-19T10:28:41;62988.56;;;-145.06;30.61
6530;BME280;3298;42.688;23.366;2022-08-19T10:31:11;62495.75;;;-145.06;30.39
6530;BME280;3298;42.688;23.366;2022-08-19T10:33:39;63037.84;;;-145.06;30.27
6530;BME280;3298;42.688;23.366;2022-08-19T10:36:08;62976.22;;;-145.06;30.58
6530;BME280;3298;42.688;23.366;2022-08-19T10:38:35;63070.69;;;-145.06;29.83
6530;BME280;3298;42.688;23.366;2022-08-19T10:41:16;63083.03;;;-145.06;30.04
6530;BME280;3298;42.688;23.366;2022-08-19T10:43:44;63177.47;;;-145.06;30.03
6530;BME280;3298;42.688;23.366;2022-08-19T10:46:13;63267.84;;;-145.06;30.13
6530;BME280;3298;42.688;23.366;2022-08-19T10:48:40;63405.44;;;-145.06;29.71
6530;BME280;3298;42.688;23.366;2022-08-19T10:51:08;63271.94;;;-145.06;29.96
6530;BME280;3298;42.688;23.366;2022-08-19T10:53:52;62976.22;;;-145.06;29.63
6530;BME280;3298;42.688;23.366;2022-08-19T10:56:21;64007.25;;;-145.06;28.98
6530;BME280;3298;42.688;23.366;2022-08-19T10:59:05;63748.44;;;-145.06;28.80
6530;BME280;3298;42.688;23.366;2022-08-19T11:01:33;63896.31;;;-145.06;28.93
6530;BME280;3298;42.688;23.366;2022-08-19T11:04:02;63920.97;;;-145.06;28.66
6530;BME280;3298;42.688;23.366;2022-08-19T11:06:30;63879.91;;;-145.06;28.87
6530;BME280;3298;42.688;23.366;2022-08-19T11:08:57;63732.00;;;-145.06;28.75
6530;BME280;3298;42.688;23.366;2022-08-19T11:11:26;63538.94;;;-145.06;28.75
6530;BME280;3298;42.688;23.366;2022-08-19T11:13:53;63608.78;;;-145.06;29.20
6530;BME280;3298;42.688;23.366;2022-08-19T11:16:22;63676.56;;;-145.06;28.84
6530;BME280;3298;42.688;23.366;2022-08-19T11:18:52;64062.72;;;-145.06;28.59
6530;BME280;3298;42.688;23.366;2022-08-19T11:21:21;64442.75;;;-145.06;27.95
6530;BME280;3298;42.688;23.366;2022-08-19T11:23:50;64278.41;;;-145.06;28.28
6530;BME280;3298;42.688;23.366;2022-08-19T11:26:18;64155.16;;;-145.06;28.32
6530;BME280;3298;42.688;23.366;2022-08-19T11:28:47;64465.34;;;-145.06;27.66
6530;BME280;3298;42.688;23.366;2022-08-19T11:31:19;64598.88;;;-145.06;27.64
6530;BME280;3298;42.688;23.366;2022-08-19T11:33:46;64270.19;;;-145.06;27.68
6530;BME280;3298;42.688;23.366;2022-08-19T11:36:16;64140.78;;;-145.06;28.24
6530;BME280;3298;42.688;23.366;2022-08-19T11:38:44;64294.84;;;-145.06;27.87
6530;BME280;3298;42.688;23.366;2022-08-19T11:41:12;64496.16;;;-145.06;27.53
6530;BME280;3298;42.688;23.366;2022-08-19T11:43:39;64479.72;;;-145.06;27.74
6530;BME280;3298;42.688;23.366;2022-08-19T11:46:10;64600.94;;;-145.06;27.70
6530;BME280;3298;42.688;23.366;2022-08-19T11:48:37;64434.53;;;-145.06;27.61
6530;BME280;3298;42.688;23.366;2022-08-19T11:51:08;64276.34;;;-145.06;27.80
6530;BME280;3298;42.688;23.366;2022-08-19T11:53:36;64087.34;;;-145.06;27.84
6530;BME280;3298;42.688;23.366;2022-08-19T11:56:04;64689.28;;;-145.06;27.92
6530;BME280;3298;42.688;23.366;2022-08-19T11:58:32;64266.06;;;-145.06;28.22
6530;BME280;3298;42.688;23.366;2022-08-19T12:00:59;64416.03;;;-145.06;27.86
6530;BME280;3298;42.688;23.366;2022-08-19T12:03:27;64463.28;;;-145.06;27.52
6530;BME280;3298;42.688;23.366;2022-08-19T12:05:54;64775.56;;;-145.06;27.12
6530;BME280;3298;42.688;23.366;2022-08-19T12:08:22;64194.19;;;-145.06;28.03
6530;BME280;3298;42.688;23.366;2022-08-19T12:10:49;63912.75;;;-145.06;28.83
6530;BME280;3298;42.688;23.366;2022-08-19T12:13:15;63715.56;;;-145.06;28.65
6530;BME280;3298;42.688;23.366;2022-08-19T12:15:46;63501.97;;;-145.06;28.42
6530;BME280;3298;42.688;23.366;2022-08-19T12:18:13;63446.53;;;-145.06;28.91
6530;BME280;3298;42.688;23.366;2022-08-19T12:20:42;63536.88;;;-145.06;28.53
6530;BME280;3298;42.688;23.366;2022-08-19T12:23:11;63561.53;;;-145.06;28.84
6530;BME280;3298;42.688;23.366;2022-08-19T12:25:43;63740.22;;;-145.06;28.78
6530;BME280;3298;42.688;23.366;2022-08-19T12:28:17;63996.97;;;-145.06;28.23
6530;BME280;3298;42.688;23.366;2022-08-19T12:30:44;64138.72;;;-145.06;27.97
6530;BME280;3298;42.688;23.366;2022-08-19T12:33:11;64214.72;;;-145.06;28.21
6530;BME280;3298;42.688;23.366;2022-08-19T12:35:40;64578.34;;;-145.06;28.09
6530;BME280;3298;42.688;23.366;2022-08-19T12:38:08;64036.00;;;-145.06;27.91
6530;BME280;3298;42.688;23.366;2022-08-19T12:40:35;64430.41;;;-145.06;27.47
6530;BME280;3298;42.688;23.366;2022-08-19T12:43:02;64161.31;;;-145.06;27.99
6530;BME280;3298;42.688;23.366;2022-08-19T12:45:29;63949.72;;;-145.06;28.02
6530;BME280;3298;42.688;23.366;2022-08-19T12:47:56;63859.34;;;-145.06;28.28
6530;BME280;3298;42.688;23.366;2022-08-19T12:50:23;63927.13;;;-145.06;28.10
6530;BME280;3298;42.688;23.366;2022-08-19T12:52:50;63875.78;;;-145.06;28.28
6530;BME280;3298;42.688;23.366;2022-08-19T12:55:18;63606.72;;;-145.06;28.57
6530;BME280;3298;42.688;23.366;2022-08-19T12:57:45;63779.25;;;-145.06;28.43